Time;durP1;ratioP1;P1;durP2;ratioP2;P2;SDS_P1;SDS_P2;PMS_P1;PMS_P2;Temp;Humidity;BMP_temperature;BMP_pressure;BME280_temperature;BME280_humidity;BME280_pressure;Samples;Min_cycle;Max_cycle;Signal;HPM_P1;HPM_P2
2021/09/16 09:25:11;;;;;;;3.84;1.92;;;;;;;20.22;69.63;99437.63;2329164;69;20144;-81
2021/09/16 09:38:30;;;;;;;2.83;1.41;;;;;;;19.35;71.34;99437.69;2333120;68;20175;-80
2021/09/16 09:42:20;;;;;;;1.96;1.25;;;;;;;19.27;72.03;99435.38;2332282;69;20148;-80
2021/09/16 09:46:25;;;;;;;1.77;1.10;;;;;;;19.36;70.69;99425.38;2312839;69;1552996;-80
2021/09/16 10:37:31;;;;;;;1.63;0.96;;;;;;;20.43;63.22;99433.22;2339519;68;20244;-81
2021/09/16 11:04:26;;;;;;;3.40;1.10;;;;;;;20.26;62.66;99424.31;2343468;68;20129;-80
2021/09/16 11:09:09;;;;;;;3.25;1.10;;;;;;;20.57;62.24;99429.13;2334473;68;20317;-81
2021/09/16 11:26:47;;;;;;;0.99;0.70;;;;;;;20.63;60.56;99420.94;2345986;68;20246;-81
2021/09/16 11:29:53;;;;;;;2.09;0.90;;;;;;;20.52;60.29;99421.44;2335519;68;20143;-80
2021/09/16 11:33:05;;;;;;;2.66;0.70;;;;;;;20.61;62.00;99420.16;2334307;65;34139;-80
2021/09/16 11:36:09;;;;;;;1.36;0.81;;;;;;;20.76;59.75;99417.69;2337081;68;20245;-80
2021/09/16 11:39:14;;;;;;;1.31;0.73;;;;;;;21.14;60.17;99417.69;2337059;68;20203;-80
2021/09/16 11:42:22;;;;;;;4.46;1.05;;;;;;;21.39;57.74;99420.91;2333850;68;20214;-80
2021/09/16 11:45:31;;;;;;;2.53;1.22;;;;;;;21.45;57.56;99421.53;2333441;65;31727;-81
2021/09/16 11:48:34;;;;;;;2.45;1.15;;;;;;;21.10;55.92;99419.63;2332007;68;20236;-78
2021/09/16 11:52:10;;;;;;;2.30;0.91;;;;;;;20.97;57.44;99422.91;2331943;68;20794;-79
2021/09/16 11:55:44;;;;;;;2.50;0.96;;;;;;;20.90;57.84;99426.75;2333615;68;20179;-79
2021/09/16 11:59:52;;;;;;;3.60;0.90;;;;;;;20.90;59.43;99427.59;2333561;68;20224;-79
2021/09/16 12:04:29;;;;;;;2.91;0.88;;;;;;;20.84;58.13;99425.25;2332943;68;20146;-79
2021/09/16 12:08:52;;;;;;;2.39;0.80;;;;;;;20.99;59.78;99423.69;2334847;68;20685;-80
2021/09/16 12:12:54;;;;;;;1.80;0.98;;;;;;;21.16;58.84;99428.16;2335103;68;20285;-80
2021/09/16 12:17:17;;;;;;;2.90;0.86;;;;;;;21.11;57.36;99428.38;2333058;68;20183;-80
2021/09/16 12:30:52;;;;;;;3.38;1.10;;;;;;;21.38;56.82;99421.84;2329833;69;20215;-80
2021/09/16 12:34:54;;;;;;;5.66;1.13;;;;;;;21.33;56.70;99426.47;2328867;69;20242;-79
2021/09/16 12:39:04;;;;;;;8.81;1.13;;;;;;;21.29;57.95;99427.56;2325712;68;20165;-80
2021/09/16 12:43:48;;;;;;;3.33;1.13;;;;;;;21.25;57.78;99417.22;2323235;69;20147;-79
2021/09/16 13:53:59;;;;;;;2.03;0.57;;;;;;;20.60;56.96;99392.06;2335656;68;20159;-81
2021/09/16 13:57:41;;;;;;;1.08;0.60;;;;;;;20.64;58.74;99391.84;2338418;68;20179;-80
2021/09/16 14:05:08;;;;;;;2.31;0.50;;;;;;;20.93;57.90;99392.28;2343550;68;20038;-80
2021/09/16 14:08:34;;;;;;;2.49;0.60;;;;;;;21.04;56.66;99398.78;2335423;68;20306;-80
2021/09/16 14:12:18;;;;;;;3.95;0.50;;;;;;;21.01;54.24;99398.09;2335226;68;20273;-80
2021/09/16 14:15:55;;;;;;;0.60;0.60;;;;;;;21.04;54.04;99395.28;2338862;68;20178;-80
2021/09/16 14:20:04;;;;;;;2.19;0.60;;;;;;;21.03;54.53;99388.31;2335184;68;20150;-80
2021/09/16 14:23:52;;;;;;;1.86;0.50;;;;;;;21.33;55.21;99378.94;2334548;68;20180;-79
2021/09/16 14:28:09;;;;;;;2.34;0.71;;;;;;;21.39;52.54;99383.94;2335716;68;20135;-80
2021/09/16 14:32:13;;;;;;;1.13;0.61;;;;;;;21.41;51.94;99378.56;2322044;68;1063474;-80
2021/09/16 14:36:22;;;;;;;1.45;0.60;;;;;;;21.29;53.80;99374.72;2333604;68;20206;-80
2021/09/16 14:40:19;;;;;;;2.22;0.70;;;;;;;21.07;52.94;99382.81;2339451;68;20151;-80
2021/09/16 14:44:17;;;;;;;;;;;;;;;20.90;55.23;99382.72;2336293;68;20172;-80
2021/09/16 14:47:21;;;;;;;1.56;0.50;;;;;;;20.76;57.41;99377.22;2334001;65;286439;-80
2021/09/16 14:51:07;;;;;;;2.55;0.64;;;;;;;20.64;56.32;99376.00;2339468;68;20208;-80
2021/09/16 14:55:02;;;;;;;2.00;0.50;;;;;;;20.60;56.57;99373.59;2337960;68;20173;-80
2021/09/16 14:58:36;;;;;;;1.58;0.50;;;;;;;20.48;56.60;99370.59;2335731;68;20250;-79
2021/09/16 15:02:09;;;;;;;1.01;0.40;;;;;;;20.52;59.23;99368.66;2336582;68;20186;-80
2021/09/16 15:05:43;;;;;;;1.16;0.28;;;;;;;20.44;56.82;99362.88;2337985;68;20196;-80
2021/09/16 15:09:02;;;;;;;0.50;0.30;;;;;;;20.38;58.58;99361.34;2337372;68;20151;-80
2021/09/16 15:13:11;;;;;;;1.14;0.40;;;;;;;20.40;59.04;99369.19;2340192;68;20247;-79
2021/09/16 15:16:21;;;;;;;4.20;0.50;;;;;;;20.48;58.31;99359.19;2332625;65;225544;-80
2021/09/16 15:19:39;;;;;;;4.14;0.55;;;;;;;20.47;57.91;99360.97;2337931;68;20135;-80
2021/09/16 15:22:58;;;;;;;2.15;0.50;;;;;;;20.40;56.39;99366.53;2341316;68;20151;-80
2021/09/16 15:26:33;;;;;;;2.86;0.40;;;;;;;20.27;58.89;99368.00;2336575;68;20136;-80
2021/09/16 15:30:17;;;;;;;1.45;0.52;;;;;;;20.16;60.35;99371.13;2334718;68;20167;-80
2021/09/16 15:33:50;;;;;;;0.98;0.40;;;;;;;20.06;59.56;99375.06;2336700;68;20261;-79
2021/09/16 15:37:14;;;;;;;0.49;0.39;;;;;;;19.92;59.04;99370.38;2336955;68;20306;-79
2021/09/16 15:41:08;;;;;;;3.19;0.40;;;;;;;19.81;60.39;99375.28;2334886;68;20260;-80
2021/09/16 15:44:40;;;;;;;1.04;0.50;;;;;;;19.74;61.52;99376.44;2337854;68;20183;-80
2021/09/16 15:48:07;;;;;;;0.55;0.40;;;;;;;19.66;60.36;99378.56;2338229;68;20232;-80
2021/09/16 15:51:50;;;;;;;0.61;0.45;;;;;;;19.64;60.60;99375.97;2339067;68;20170;-79
2021/09/16 15:55:41;;;;;;;0.65;0.41;;;;;;;19.63;60.75;99378.69;2336660;68;20162;-81
2021/09/16 15:59:03;;;;;;;1.92;0.40;;;;;;;19.61;60.47;99370.84;2340518;68;20150;-80
2021/09/16 16:02:39;;;;;;;0.65;0.40;;;;;;;19.61;62.34;99374.34;2334835;68;20253;-80
2021/09/16 16:06:30;;;;;;;1.00;0.40;;;;;;;19.61;60.65;99369.06;2336681;68;20301;-80
2021/09/16 16:10:25;;;;;;;1.32;0.40;;;;;;;19.67;61.69;99377.63;2338167;68;20170;-80
2021/09/16 16:14:25;;;;;;;2.59;0.50;;;;;;;19.54;62.85;99387.81;2335931;68;20215;-80
2021/09/16 16:18:06;;;;;;;2.34;0.59;;;;;;;19.61;64.32;99382.25;2336745;68;20242;-80
2021/09/16 16:22:05;;;;;;;2.39;0.40;;;;;;;19.62;61.89;99385.72;2339222;68;20237;-80
2021/09/16 16:26:05;;;;;;;3.60;0.55;;;;;;;19.46;62.98;99388.09;2339616;68;20143;-79
2021/09/16 16:29:38;;;;;;;0.51;0.50;;;;;;;19.23;65.78;99388.19;2342144;68;20139;-80
2021/09/16 16:33:21;;;;;;;1.51;0.50;;;;;;;19.41;64.93;99390.06;2339666;68;20198;-80
2021/09/16 16:42:33;;;;;;;1.86;0.57;;;;;;;21.88;56.15;99392.03;2338656;68;20159;-80
2021/09/16 16:56:16;;;;;;;2.34;0.50;;;;;;;19.44;64.99;99394.34;2339394;68;20124;-80
2021/09/16 17:00:08;;;;;;;1.05;0.60;;;;;;;19.11;67.29;99393.91;2337768;68;20264;-80
2021/09/16 17:04:04;;;;;;;0.73;0.47;;;;;;;18.85;69.42;99397.53;2339697;68;20272;-79
2021/09/16 17:07:39;;;;;;;0.54;0.50;;;;;;;18.74;71.17;99394.47;2337107;68;20176;-80
2021/09/16 17:11:27;;;;;;;1.94;0.55;;;;;;;18.65;71.59;99399.13;2336592;68;20107;-81
2021/09/16 17:15:06;;;;;;;2.95;0.60;;;;;;;18.55;70.43;99402.16;2339249;68;20172;-80
2021/09/16 17:22:14;;;;;;;2.96;0.80;;;;;;;18.24;73.21;99398.00;2341752;68;20151;-80
2021/09/16 17:25:36;;;;;;;2.10;0.70;;;;;;;18.11;74.05;99401.94;2337129;68;20135;-81
2021/09/16 17:58:10;;;;;;;2.45;0.82;;;;;;;16.55;76.04;99412.09;2344887;68;20224;-82
2021/09/16 18:01:47;;;;;;;2.69;0.70;;;;;;;16.52;76.66;99416.56;2341934;68;20128;-83
2021/09/16 23:12:50;;;;;;;2.01;1.54;;;;;;;12.66;89.49;99521.53;2301974;68;20235;31
2021/09/16 23:15:55;;;;;;;2.22;1.60;;;;;;;12.65;89.60;99522.41;2327070;69;20231;-80
2021/09/16 23:19:07;;;;;;;2.80;1.46;;;;;;;12.61;89.62;99523.31;2327379;69;20168;-79
2021/09/16 23:22:17;;;;;;;5.46;1.66;;;;;;;12.56;89.65;99525.09;2337381;69;20142;-80
2021/09/16 23:25:32;;;;;;;5.24;1.73;;;;;;;12.53;89.65;99521.66;2336678;68;20102;-79
2021/09/16 23:28:47;;;;;;;3.20;1.49;;;;;;;12.49;89.75;99520.84;2333160;68;20113;-79
